sensor_id;sensor_type;location;lat;lon;timestamp;pressure;altitude;pressure_sealevel;temperature;humidity
72395;BME280;60384;48.152;11.614;2023-06-14T00:00:16;95192.06;;;18.83;39.42
72395;BME280;60384;48.152;11.614;2023-06-14T00:03:19;95193.97;;;18.82;39.15
72395;BME280;60384;48.152;11.614;2023-06-14T00:06:22;95193.19;;;18.78;39.27
72395;BME280;60384;48.152;11.614;2023-06-14T00:09:24;95190.09;;;18.76;39.14
72395;BME280;60384;48.152;11.614;2023-06-14T00:12:26;95197.44;;;18.72;39.22
72395;BME280;60384;48.152;11.614;2023-06-14T00:15:28;95196.22;;;18.66;38.99
72395;BME280;60384;48.152;11.614;2023-06-14T00:18:32;95199.28;;;18.57;39.09
72395;BME280;60384;48.152;11.614;2023-06-14T00:21:34;95192.25;;;18.53;39.31
72395;BME280;60384;48.152;11.614;2023-06-14T00:24:36;95196.09;;;18.48;39.18
72395;BME280;60384;48.152;11.614;2023-06-14T00:27:38;95194.13;;;18.42;39.42
72395;BME280;60384;48.152;11.614;2023-06-14T00:30:40;95190.66;;;18.38;39.56
72395;BME280;60384;48.152;11.614;2023-06-14T00:33:43;95184.03;;;18.32;39.40
72395;BME280;60384;48.152;11.614;2023-06-14T00:36:46;95182.44;;;18.24;39.31
72395;BME280;60384;48.152;11.614;2023-06-14T00:39:48;95190.13;;;18.18;39.47
72395;BME280;60384;48.152;11.614;2023-06-14T00:42:50;95190.13;;;18.14;39.55
72395;BME280;60384;48.152;11.614;2023-06-14T00:45:51;95197.03;;;18.08;39.49
72395;BME280;60384;48.152;11.614;2023-06-14T00:48:54;95184.59;;;18.00;39.90
72395;BME280;60384;48.152;11.614;2023-06-14T00:51:57;95189.19;;;17.93;39.90
72395;BME280;60384;48.152;11.614;2023-06-14T00:55:00;95191.81;;;17.86;39.76
72395;BME280;60384;48.152;11.614;2023-06-14T00:58:03;95188.56;;;17.66;39.85
72395;BME280;60384;48.152;11.614;2023-06-14T01:01:05;95186.09;;;17.50;40.08
72395;BME280;60384;48.152;11.614;2023-06-14T01:04:10;95195.31;;;17.46;40.33
72395;BME280;60384;48.152;11.614;2023-06-14T01:07:14;95197.56;;;17.37;40.29
72395;BME280;60384;48.152;11.614;2023-06-14T01:10:21;95196.22;;;17.20;40.26
72395;BME280;60384;48.152;11.614;2023-06-14T01:13:29;95196.41;;;17.04;40.49
72395;BME280;60384;48.152;11.614;2023-06-14T01:16:33;95192.75;;;16.86;40.50
72395;BME280;60384;48.152;11.614;2023-06-14T01:19:37;95187.59;;;16.74;40.50
72395;BME280;60384;48.152;11.614;2023-06-14T01:22:47;95190.31;;;16.74;40.51
72395;BME280;60384;48.152;11.614;2023-06-14T01:25:49;95189.91;;;16.75;40.67
72395;BME280;60384;48.152;11.614;2023-06-14T01:28:52;95188.84;;;16.80;40.48
72395;BME280;60384;48.152;11.614;2023-06-14T01:31:58;95190.47;;;16.88;40.20
72395;BME280;60384;48.152;11.614;2023-06-14T01:35:05;95185.13;;;16.91;40.32
72395;BME280;60384;48.152;11.614;2023-06-14T01:38:08;95187.50;;;16.97;40.15
72395;BME280;60384;48.152;11.614;2023-06-14T01:41:10;95182.13;;;17.00;40.08
72395;BME280;60384;48.152;11.614;2023-06-14T01:44:13;95171.75;;;17.02;40.02
72395;BME280;60384;48.152;11.614;2023-06-14T01:47:16;95181.38;;;17.03;39.73
72395;BME280;60384;48.152;11.614;2023-06-14T01:50:18;95181.38;;;17.03;39.85
72395;BME280;60384;48.152;11.614;2023-06-14T01:53:21;95173.66;;;17.02;39.65
72395;BME280;60384;48.152;11.614;2023-06-14T01:56:23;95167.06;;;16.99;39.80
72395;BME280;60384;48.152;11.614;2023-06-14T01:59:26;95174.72;;;16.93;39.98
72395;BME280;60384;48.152;11.614;2023-06-14T02:02:28;95173.09;;;16.85;39.97
72395;BME280;60384;48.152;11.614;2023-06-14T02:05:29;95173.00;;;16.78;40.25
72395;BME280;60384;48.152;11.614;2023-06-14T02:08:32;95176.41;;;16.72;40.18
72395;BME280;60384;48.152;11.614;2023-06-14T02:11:34;95177.91;;;16.69;40.03
72395;BME280;60384;48.152;11.614;2023-06-14T02:14:36;95180.59;;;16.69;40.19
72395;BME280;60384;48.152;11.614;2023-06-14T02:17:38;95173.66;;;16.68;40.30
72395;BME280;60384;48.152;11.614;2023-06-14T02:20:40;95179.41;;;16.67;40.03
72395;BME280;60384;48.152;11.614;2023-06-14T02:23:43;95172.47;;;16.66;40.01
72395;BME280;60384;48.152;11.614;2023-06-14T02:26:45;95165.50;;;16.65;39.93
72395;BME280;60384;48.152;11.614;2023-06-14T02:29:49;95162.00;;;16.61;40.06
72395;BME280;60384;48.152;11.614;2023-06-14T02:32:50;95172.34;;;16.59;40.02
72395;BME280;60384;48.152;11.614;2023-06-14T02:35:53;95172.66;;;16.53;40.20
72395;BME280;60384;48.152;11.614;2023-06-14T02:38:57;95176.88;;;16.51;40.32
72395;BME280;60384;48.152;11.614;2023-06-14T02:41:59;95173.75;;;16.45;40.19
72395;BME280;60384;48.152;11.614;2023-06-14T02:45:01;95186.78;;;16.43;39.97
72395;BME280;60384;48.152;11.614;2023-06-14T02:48:04;95185.25;;;16.42;40.35
72395;BME280;60384;48.152;11.614;2023-06-14T02:51:07;95183.22;;;16.36;40.36
72395;BME280;60384;48.152;11.614;2023-06-14T02:54:11;95181.47;;;16.21;40.39
72395;BME280;60384;48.152;11.614;2023-06-14T02:57:13;95185.47;;;16.04;40.43
72395;BME280;60384;48.152;11.614;2023-06-14T03:00:16;95176.69;;;15.84;41.09
72395;BME280;60384;48.152;11.614;2023-06-14T03:03:20;95185.22;;;15.63;40.93
72395;BME280;60384;48.152;11.614;2023-06-14T03:06:28;95184.84;;;15.42;40.88
72395;BME280;60384;48.152;11.614;2023-06-14T03:09:33;95189.19;;;15.27;41.26
72395;BME280;60384;48.152;11.614;2023-06-14T03:12:34;95194.53;;;15.24;41.63
72395;BME280;60384;48.152;11.614;2023-06-14T03:15:37;95193.00;;;15.26;41.73
72395;BME280;60384;48.152;11.614;2023-06-14T03:18:42;95201.16;;;15.30;41.34
72395;BME280;60384;48.152;11.614;2023-06-14T03:21:43;95195.84;;;15.34;41.33
72395;BME280;60384;48.152;11.614;2023-06-14T03:24:47;95199.00;;;15.39;41.03
72395;BME280;60384;48.152;11.614;2023-06-14T03:27:49;95201.78;;;15.43;41.38
72395;BME280;60384;48.152;11.614;2023-06-14T03:30:52;95215.34;;;15.50;40.58
72395;BME280;60384;48.152;11.614;2023-06-14T03:33:54;95209.28;;;15.53;41.14
72395;BME280;60384;48.152;11.614;2023-06-14T03:36:57;95211.25;;;15.56;40.93
72395;BME280;60384;48.152;11.614;2023-06-14T03:40:00;95212.47;;;15.58;40.58
72395;BME280;60384;48.152;11.614;2023-06-14T03:43:05;95208.22;;;15.57;40.58
72395;BME280;60384;48.152;11.614;2023-06-14T03:46:07;95204.38;;;15.58;40.81
72395;BME280;60384;48.152;11.614;2023-06-14T03:49:09;95207.78;;;15.55;40.68
72395;BME280;60384;48.152;11.614;2023-06-14T03:52:12;95215.88;;;15.36;41.18
72395;BME280;60384;48.152;11.614;2023-06-14T03:55:20;95216.22;;;15.12;40.89
72395;BME280;60384;48.152;11.614;2023-06-14T03:58:22;95220.47;;;14.94;41.78
72395;BME280;60384;48.152;11.614;2023-06-14T04:01:24;95230.53;;;14.77;41.33
72395;BME280;60384;48.152;11.614;2023-06-14T04:04:28;95227.28;;;14.68;41.89
72395;BME280;60384;48.152;11.614;2023-06-14T04:07:31;95235.19;;;14.61;41.92
72395;BME280;60384;48.152;11.614;2023-06-14T04:10:34;95240.06;;;14.56;42.03
72395;BME280;60384;48.152;11.614;2023-06-14T04:13:35;95247.41;;;14.59;41.91
72395;BME280;60384;48.152;11.614;2023-06-14T04:16:39;95245.03;;;14.73;41.48
72395;BME280;60384;48.152;11.614;2023-06-14T04:19:41;95251.06;;;14.85;41.40
72395;BME280;60384;48.152;11.614;2023-06-14T04:22:43;95251.28;;;14.96;41.30
72395;BME280;60384;48.152;11.614;2023-06-14T04:25:47;95248.56;;;14.96;41.26
72395;BME280;60384;48.152;11.614;2023-06-14T04:28:50;95249.84;;;15.02;41.36
72395;BME280;60384;48.152;11.614;2023-06-14T04:31:53;95253.81;;;15.08;41.27
72395;BME280;60384;48.152;11.614;2023-06-14T04:35:00;95249.28;;;15.12;41.04
72395;BME280;60384;48.152;11.614;2023-06-14T04:38:05;95251.63;;;15.14;41.16
72395;BME280;60384;48.152;11.614;2023-06-14T04:41:11;95261.66;;;15.17;40.90
72395;BME280;60384;48.152;11.614;2023-06-14T04:44:14;95256.72;;;15.19;40.58
72395;BME280;60384;48.152;11.614;2023-06-14T04:47:20;95262.78;;;15.16;40.86
72395;BME280;60384;48.152;11.614;2023-06-14T04:50:22;95258.91;;;15.13;41.34
72395;BME280;60384;48.152;11.614;2023-06-14T04:53:24;95260.72;;;15.09;41.17
72395;BME280;60384;48.152;11.614;2023-06-14T04:56:31;95265.34;;;15.09;40.93
72395;BME280;60384;48.152;11.614;2023-06-14T04:59:33;95267.75;;;15.14;41.12
72395;BME280;60384;48.152;11.614;2023-06-14T05:02:36;95272.06;;;15.18;41.02
72395;BME280;60384;48.152;11.614;2023-06-14T05:05:39;95270.84;;;15.16;41.10
72395;BME280;60384;48.152;11.614;2023-06-14T05:08:41;95270.16;;;15.19;41.08
72395;BME280;60384;48.152;11.614;2023-06-14T05:11:44;95273.75;;;15.26;41.33
72395;BME280;60384;48.152;11.614;2023-06-14T05:14:48;95274.31;;;15.36;40.97
72395;BME280;60384;48.152;11.614;2023-06-14T05:17:52;95278.63;;;15.40;41.57
72395;BME280;60384;48.152;11.614;2023-06-14T05:20:55;95285.28;;;15.46;40.85
72395;BME280;60384;48.152;11.614;2023-06-14T05:23:57;95287.69;;;15.51;40.96
72395;BME280;60384;48.152;11.614;2023-06-14T05:27:00;95282.41;;;15.55;41.40
72395;BME280;60384;48.152;11.614;2023-06-14T05:30:02;95287.06;;;15.58;40.95
72395;BME280;60384;48.152;11.614;2023-06-14T05:33:04;95290.59;;;15.62;41.34
72395;BME280;60384;48.152;11.614;2023-06-14T05:36:06;95289.53;;;15.66;41.43
72395;BME280;60384;48.152;11.614;2023-06-14T05:39:07;95298.47;;;15.70;41.45
72395;BME280;60384;48.152;11.614;2023-06-14T05:42:11;95295.03;;;15.74;41.32
72395;BME280;60384;48.152;11.614;2023-06-14T05:45:13;95294.25;;;15.73;41.14
72395;BME280;60384;48.152;11.614;2023-06-14T05:48:15;95294.75;;;15.79;41.49
72395;BME280;60384;48.152;11.614;2023-06-14T05:51:17;95298.22;;;15.79;41.27
72395;BME280;60384;48.152;11.614;2023-06-14T05:54:19;95296.44;;;15.87;41.34
72395;BME280;60384;48.152;11.614;2023-06-14T05:57:22;95298.00;;;15.88;41.59
72395;BME280;60384;48.152;11.614;2023-06-14T06:00:24;95291.09;;;15.90;41.35
72395;BME280;60384;48.152;11.614;2023-06-14T06:03:25;95290.78;;;15.95;41.26
72395;BME280;60384;48.152;11.614;2023-06-14T06:06:29;95295.47;;;15.98;41.23
72395;BME280;60384;48.152;11.614;2023-06-14T06:09:31;95294.38;;;16.03;41.61
72395;BME280;60384;48.152;11.614;2023-06-14T06:12:34;95300.22;;;16.05;41.68
72395;BME280;60384;48.152;11.614;2023-06-14T06:15:35;95301.78;;;16.06;41.48
72395;BME280;60384;48.152;11.614;2023-06-14T06:18:37;95304.03;;;16.04;41.73
72395;BME280;60384;48.152;11.614;2023-06-14T06:21:39;95306.38;;;16.05;41.91
72395;BME280;60384;48.152;11.614;2023-06-14T06:24:41;95305.28;;;16.10;41.78
72395;BME280;60384;48.152;11.614;2023-06-14T06:27:44;95311.88;;;16.12;41.54
72395;BME280;60384;48.152;11.614;2023-06-14T06:30:46;95315.47;;;16.20;41.78
72395;BME280;60384;48.152;11.614;2023-06-14T06:33:47;95319.84;;;16.28;41.73
72395;BME280;60384;48.152;11.614;2023-06-14T06:36:49;95321.44;;;16.33;41.80
72395;BME280;60384;48.152;11.614;2023-06-14T06:39:51;95323.88;;;16.41;41.83
72395;BME280;60384;48.152;11.614;2023-06-14T06:42:54;95312.03;;;16.46;41.45
72395;BME280;60384;48.152;11.614;2023-06-14T06:45:55;95317.44;;;16.46;41.99
72395;BME280;60384;48.152;11.614;2023-06-14T06:48:57;95318.97;;;16.47;42.10
72395;BME280;60384;48.152;11.614;2023-06-14T06:51:59;95326.03;;;16.55;41.85
72395;BME280;60384;48.152;11.614;2023-06-14T06:55:02;95323.38;;;16.59;41.77
72395;BME280;60384;48.152;11.614;2023-06-14T06:58:05;95328.44;;;16.60;42.09
72395;BME280;60384;48.152;11.614;2023-06-14T07:01:07;95331.19;;;16.64;41.73
72395;BME280;60384;48.152;11.614;2023-06-14T07:04:09;95325.50;;;16.69;41.79
72395;BME280;60384;48.152;11.614;2023-06-14T07:07:11;95318.22;;;16.73;41.84
72395;BME280;60384;48.152;11.614;2023-06-14T07:10:12;95324.44;;;16.77;41.92
72395;BME280;60384;48.152;11.614;2023-06-14T07:13:15;95323.34;;;16.81;42.15
72395;BME280;60384;48.152;11.614;2023-06-14T07:16:17;95338.81;;;16.84;42.22
72395;BME280;60384;48.152;11.614;2023-06-14T07:19:19;95328.50;;;16.90;42.20
72395;BME280;60384;48.152;11.614;2023-06-14T07:22:21;95333.91;;;16.93;42.21
72395;BME280;60384;48.152;11.614;2023-06-14T07:25:22;95339.78;;;16.99;42.07
72395;BME280;60384;48.152;11.614;2023-06-14T07:28:25;95332.88;;;17.02;42.43
72395;BME280;60384;48.152;11.614;2023-06-14T07:31:27;95343.00;;;17.08;42.32
72395;BME280;60384;48.152;11.614;2023-06-14T07:34:29;95337.69;;;17.15;42.23
72395;BME280;60384;48.152;11.614;2023-06-14T07:37:30;95345.88;;;17.22;42.24
72395;BME280;60384;48.152;11.614;2023-06-14T07:40:32;95346.31;;;17.28;42.58
72395;BME280;60384;48.152;11.614;2023-06-14T07:43:35;95350.63;;;17.32;42.34
72395;BME280;60384;48.152;11.614;2023-06-14T07:46:36;95345.69;;;17.38;42.29
72395;BME280;60384;48.152;11.614;2023-06-14T07:49:38;95348.81;;;17.44;42.21
72395;BME280;60384;48.152;11.614;2023-06-14T07:52:40;95338.91;;;17.51;42.32
72395;BME280;60384;48.152;11.614;2023-06-14T07:55:41;95342.41;;;17.55;42.15
72395;BME280;60384;48.152;11.614;2023-06-14T07:58:45;95344.44;;;17.62;42.36
72395;BME280;60384;48.152;11.614;2023-06-14T08:01:46;95342.97;;;17.68;42.49
72395;BME280;60384;48.152;11.614;2023-06-14T08:04:48;95335.72;;;17.75;42.38
72395;BME280;60384;48.152;11.614;2023-06-14T08:07:50;95331.53;;;17.82;42.50
72395;BME280;60384;48.152;11.614;2023-06-14T08:10:51;95340.09;;;17.87;42.56
72395;BME280;60384;48.152;11.614;2023-06-14T08:13:54;95342.09;;;17.94;42.32
72395;BME280;60384;48.152;11.614;2023-06-14T08:16:56;95336.38;;;18.02;42.37
72395;BME280;60384;48.152;11.614;2023-06-14T08:19:57;95345.34;;;18.10;42.36
72395;BME280;60384;48.152;11.614;2023-06-14T08:22:59;95342.28;;;18.15;42.33
72395;BME280;60384;48.152;11.614;2023-06-14T08:26:01;95345.06;;;18.22;42.33
72395;BME280;60384;48.152;11.614;2023-06-14T08:29:05;95352.06;;;18.30;42.37
72395;BME280;60384;48.152;11.614;2023-06-14T08:32:08;95355.63;;;18.38;42.53
72395;BME280;60384;48.152;11.614;2023-06-14T08:35:10;95353.75;;;18.45;42.67
72395;BME280;60384;48.152;11.614;2023-06-14T08:38:12;95361.13;;;18.52;42.66
72395;BME280;60384;48.152;11.614;2023-06-14T08:41:14;95362.00;;;18.56;42.46
72395;BME280;60384;48.152;11.614;2023-06-14T08:44:23;95365.91;;;18.62;42.43
72395;BME280;60384;48.152;11.614;2023-06-14T08:47:24;95358.97;;;18.68;42.47
72395;BME280;60384;48.152;11.614;2023-06-14T08:50:29;95365.22;;;18.72;42.72
72395;BME280;60384;48.152;11.614;2023-06-14T08:53:32;95363.66;;;18.75;42.36
72395;BME280;60384;48.152;11.614;2023-06-14T08:56:34;95362.56;;;18.79;42.57
72395;BME280;60384;48.152;11.614;2023-06-14T08:59:43;95358.31;;;18.82;42.58
72395;BME280;60384;48.152;11.614;2023-06-14T09:02:47;95360.28;;;18.88;42.21
72395;BME280;60384;48.152;11.614;2023-06-14T09:05:48;95363.81;;;18.96;42.33
72395;BME280;60384;48.152;11.614;2023-06-14T09:08:50;95359.63;;;19.06;42.21
72395;BME280;60384;48.152;11.614;2023-06-14T09:11:52;95356.56;;;19.11;42.35
72395;BME280;60384;48.152;11.614;2023-06-14T09:14:55;95358.53;;;19.17;42.75
72395;BME280;60384;48.152;11.614;2023-06-14T09:17:57;95363.59;;;19.26;42.38
72395;BME280;60384;48.152;11.614;2023-06-14T09:20:59;95359.78;;;19.34;42.33
72395;BME280;60384;48.152;11.614;2023-06-14T09:24:01;95359.41;;;19.39;42.67
72395;BME280;60384;48.152;11.614;2023-06-14T09:27:03;95364.91;;;19.46;42.38
72395;BME280;60384;48.152;11.614;2023-06-14T09:30:08;95364.53;;;19.55;42.35
72395;BME280;60384;48.152;11.614;2023-06-14T09:33:10;95365.34;;;19.62;42.51
72395;BME280;60384;48.152;11.614;2023-06-14T09:36:12;95361.88;;;19.69;42.49
72395;BME280;60384;48.152;11.614;2023-06-14T09:39:16;95369.66;;;19.74;42.44
72395;BME280;60384;48.152;11.614;2023-06-14T09:42:19;95369.28;;;19.79;42.61
72395;BME280;60384;48.152;11.614;2023-06-14T09:45:22;95368.91;;;19.80;42.58
72395;BME280;60384;48.152;11.614;2023-06-14T09:48:24;95372.38;;;19.85;42.63
72395;BME280;60384;48.152;11.614;2023-06-14T09:51:26;95375.50;;;19.87;42.56
72395;BME280;60384;48.152;11.614;2023-06-14T09:54:28;95373.97;;;19.93;42.65
72395;BME280;60384;48.152;11.614;2023-06-14T09:57:30;95379.41;;;20.00;42.45
72395;BME280;60384;48.152;11.614;2023-06-14T10:00:35;95375.56;;;20.04;42.56
72395;BME280;60384;48.152;11.614;2023-06-14T10:03:37;95365.09;;;20.10;42.52
72395;BME280;60384;48.152;11.614;2023-06-14T10:06:40;95367.44;;;20.15;42.55
72395;BME280;60384;48.152;11.614;2023-06-14T10:09:42;95368.59;;;20.25;42.55
72395;BME280;60384;48.152;11.614;2023-06-14T10:12:49;95374.84;;;20.36;42.60
72395;BME280;60384;48.152;11.614;2023-06-14T10:15:54;95373.69;;;20.40;42.39
72395;BME280;60384;48.152;11.614;2023-06-14T10:19:01;95369.44;;;20.43;42.41
72395;BME280;60384;48.152;11.614;2023-06-14T10:22:04;95370.97;;;20.51;42.55
72395;BME280;60384;48.152;11.614;2023-06-14T10:25:07;95367.91;;;20.56;42.36
72395;BME280;60384;48.152;11.614;2023-06-14T10:28:14;95378.75;;;20.52;42.41
72395;BME280;60384;48.152;11.614;2023-06-14T10:31:18;95368.28;;;20.54;42.52
72395;BME280;60384;48.152;11.614;2023-06-14T10:34:21;95366.31;;;20.62;42.57
72395;BME280;60384;48.152;11.614;2023-06-14T10:37:24;95365.94;;;20.71;42.55
72395;BME280;60384;48.152;11.614;2023-06-14T10:40:29;95370.97;;;20.76;42.51
72395;BME280;60384;48.152;11.614;2023-06-14T10:43:31;95362.47;;;20.84;42.51
72395;BME280;60384;48.152;11.614;2023-06-14T10:46:34;95372.50;;;20.91;42.46
72395;BME280;60384;48.152;11.614;2023-06-14T10:49:37;95373.69;;;20.93;42.25
72395;BME280;60384;48.152;11.614;2023-06-14T10:52:41;95379.50;;;20.88;42.42
72395;BME280;60384;48.152;11.614;2023-06-14T10:55:43;95371.75;;;20.76;42.61
72395;BME280;60384;48.152;11.614;2023-06-14T10:58:46;95369.06;;;20.66;42.61
72395;BME280;60384;48.152;11.614;2023-06-14T11:01:53;95367.88;;;20.59;42.64
72395;BME280;60384;48.152;11.614;2023-06-14T11:04:58;95362.06;;;20.65;42.47
72395;BME280;60384;48.152;11.614;2023-06-14T11:08:13;95364.00;;;20.78;42.45
72395;BME280;60384;48.152;11.614;2023-06-14T11:11:17;95353.13;;;20.89;42.35
72395;BME280;60384;48.152;11.614;2023-06-14T11:14:19;95376.00;;;21.02;42.21
72395;BME280;60384;48.152;11.614;2023-06-14T11:17:22;95367.84;;;21.20;42.27
72395;BME280;60384;48.152;11.614;2023-06-14T11:20:24;95360.84;;;21.29;42.13
72395;BME280;60384;48.152;11.614;2023-06-14T11:23:26;95360.03;;;21.36;41.87
72395;BME280;60384;48.152;11.614;2023-06-14T11:26:28;95363.13;;;21.45;42.19
72395;BME280;60384;48.152;11.614;2023-06-14T11:29:31;95364.63;;;21.57;42.07
72395;BME280;60384;48.152;11.614;2023-06-14T11:32:34;95358.41;;;21.63;41.85
72395;BME280;60384;48.152;11.614;2023-06-14T11:35:35;95363.00;;;21.73;41.78
72395;BME280;60384;48.152;11.614;2023-06-14T11:38:37;95361.41;;;21.83;42.22
72395;BME280;60384;48.152;11.614;2023-06-14T11:41:41;95353.59;;;21.89;42.08
72395;BME280;60384;48.152;11.614;2023-06-14T11:44:45;95356.72;;;21.91;41.85
72395;BME280;60384;48.152;11.614;2023-06-14T11:47:48;95356.34;;;21.85;41.82
72395;BME280;60384;48.152;11.614;2023-06-14T11:50:50;95355.25;;;21.75;42.01
72395;BME280;60384;48.152;11.614;2023-06-14T11:53:51;95347.84;;;21.79;42.15
72395;BME280;60384;48.152;11.614;2023-06-14T11:56:53;95354.03;;;21.87;41.89
72395;BME280;60384;48.152;11.614;2023-06-14T11:59:55;95347.38;;;21.92;41.98
72395;BME280;60384;48.152;11.614;2023-06-14T12:02:58;95347.38;;;21.95;41.96
72395;BME280;60384;48.152;11.614;2023-06-14T12:06:04;95355.50;;;22.02;41.86
72395;BME280;60384;48.152;11.614;2023-06-14T12:09:07;95345.00;;;22.04;41.89
72395;BME280;60384;48.152;11.614;2023-06-14T12:12:13;95338.78;;;22.07;42.08
72395;BME280;60384;48.152;11.614;2023-06-14T12:18:18;95347.25;;;22.16;41.67
72395;BME280;60384;48.152;11.614;2023-06-14T12:21:22;95344.91;;;22.18;41.96
72395;BME280;60384;48.152;11.614;2023-06-14T12:24:27;95342.53;;;22.24;41.91
72395;BME280;60384;48.152;11.614;2023-06-14T12:27:29;95336.72;;;22.22;41.61
72395;BME280;60384;48.152;11.614;2023-06-14T12:30:31;95341.38;;;22.25;42.05
72395;BME280;60384;48.152;11.614;2023-06-14T12:33:34;95340.91;;;22.34;41.67
72395;BME280;60384;48.152;11.614;2023-06-14T12:36:35;95341.19;;;22.50;41.41
72395;BME280;60384;48.152;11.614;2023-06-14T12:39:41;95336.09;;;22.55;41.60
72395;BME280;60384;48.152;11.614;2023-06-14T12:42:44;95348.19;;;22.51;41.62
72395;BME280;60384;48.152;11.614;2023-06-14T12:45:48;95343.56;;;22.44;41.39
72395;BME280;60384;48.152;11.614;2023-06-14T12:48:51;95349.75;;;22.48;41.60
72395;BME280;60384;48.152;11.614;2023-06-14T12:51:53;95336.50;;;22.54;41.87
72395;BME280;60384;48.152;11.614;2023-06-14T12:54:55;95339.19;;;22.57;41.97
72395;BME280;60384;48.152;11.614;2023-06-14T12:57:56;95332.47;;;22.73;41.63
72395;BME280;60384;48.152;11.614;2023-06-14T13:00:58;95338.56;;;22.87;41.64
72395;BME280;60384;48.152;11.614;2023-06-14T13:04:01;95344.63;;;23.05;41.97
72395;BME280;60384;48.152;11.614;2023-06-14T13:07:03;95346.75;;;23.25;41.90
72395;BME280;60384;48.152;11.614;2023-06-14T13:10:05;95340.69;;;23.44;41.51
72395;BME280;60384;48.152;11.614;2023-06-14T13:13:06;95342.56;;;23.54;41.75
72395;BME280;60384;48.152;11.614;2023-06-14T13:16:08;95346.31;;;23.67;41.89
72395;BME280;60384;48.152;11.614;2023-06-14T13:19:12;95352.00;;;23.80;41.77
72395;BME280;60384;48.152;11.614;2023-06-14T13:22:14;95340.94;;;23.91;41.86
72395;BME280;60384;48.152;11.614;2023-06-14T13:25:15;95344.69;;;24.00;41.78
72395;BME280;60384;48.152;11.614;2023-06-14T13:28:17;95342.22;;;24.09;42.02
72395;BME280;60384;48.152;11.614;2023-06-14T13:31:19;95352.38;;;24.09;41.82
72395;BME280;60384;48.152;11.614;2023-06-14T13:34:22;95339.41;;;24.16;42.11
72395;BME280;60384;48.152;11.614;2023-06-14T13:37:23;95332.59;;;24.32;41.77
72395;BME280;60384;48.152;11.614;2023-06-14T13:40:25;95337.91;;;24.39;41.78
72395;BME280;60384;48.152;11.614;2023-06-14T13:43:27;95330.00;;;24.48;41.87
72395;BME280;60384;48.152;11.614;2023-06-14T13:46:29;95327.09;;;24.58;41.58
72395;BME280;60384;48.152;11.614;2023-06-14T13:49:32;95331.59;;;24.68;41.73
72395;BME280;60384;48.152;11.614;2023-06-14T13:52:35;95331.19;;;24.70;41.68
72395;BME280;60384;48.152;11.614;2023-06-14T13:55:39;95326.97;;;24.65;41.67
72395;BME280;60384;48.152;11.614;2023-06-14T13:58:40;95330.53;;;24.62;41.71
72395;BME280;60384;48.152;11.614;2023-06-14T14:01:42;95325.59;;;24.54;41.88
72395;BME280;60384;48.152;11.614;2023-06-14T14:04:45;95323.66;;;24.54;41.77
72395;BME280;60384;48.152;11.614;2023-06-14T14:07:51;95332.78;;;24.67;41.71
72395;BME280;60384;48.152;11.614;2023-06-14T14:10:53;95325.44;;;24.88;41.60
72395;BME280;60384;48.152;11.614;2023-06-14T14:13:56;95329.88;;;25.01;41.50
72395;BME280;60384;48.152;11.614;2023-06-14T14:16:58;95323.00;;;25.17;41.35
72395;BME280;60384;48.152;11.614;2023-06-14T14:20:01;95329.84;;;25.25;41.42
72395;BME280;60384;48.152;11.614;2023-06-14T14:23:03;95327.00;;;25.32;41.16
72395;BME280;60384;48.152;11.614;2023-06-14T14:26:04;95329.09;;;25.44;41.36
72395;BME280;60384;48.152;11.614;2023-06-14T14:29:06;95333.72;;;25.47;41.40
72395;BME280;60384;48.152;11.614;2023-06-14T14:32:08;95332.88;;;25.50;41.31
72395;BME280;60384;48.152;11.614;2023-06-14T14:35:15;95321.25;;;25.66;41.20
72395;BME280;60384;48.152;11.614;2023-06-14T14:38:17;95336.81;;;25.69;40.92
72395;BME280;60384;48.152;11.614;2023-06-14T14:41:18;95338.31;;;25.73;40.96
72395;BME280;60384;48.152;11.614;2023-06-14T14:44:20;95338.91;;;25.81;41.38
72395;BME280;60384;48.152;11.614;2023-06-14T14:47:21;95339.06;;;25.93;41.02
72395;BME280;60384;48.152;11.614;2023-06-14T14:50:26;95343.06;;;25.89;40.99
72395;BME280;60384;48.152;11.614;2023-06-14T14:53:27;95339.00;;;25.77;41.06
72395;BME280;60384;48.152;11.614;2023-06-14T14:56:29;95338.09;;;25.84;41.06
72395;BME280;60384;48.152;11.614;2023-06-14T14:59:31;95334.84;;;25.89;41.07
72395;BME280;60384;48.152;11.614;2023-06-14T15:02:32;95337.88;;;25.75;41.24
72395;BME280;60384;48.152;11.614;2023-06-14T15:05:35;95339.97;;;25.47;41.07
72395;BME280;60384;48.152;11.614;2023-06-14T15:08:38;95339.53;;;25.29;41.17
72395;BME280;60384;48.152;11.614;2023-06-14T15:11:39;95334.63;;;25.40;41.09
72395;BME280;60384;48.152;11.614;2023-06-14T15:14:41;95345.59;;;25.60;41.07
72395;BME280;60384;48.152;11.614;2023-06-14T15:17:42;95337.69;;;25.85;40.58
72395;BME280;60384;48.152;11.614;2023-06-14T15:20:46;95337.78;;;25.98;40.70
72395;BME280;60384;48.152;11.614;2023-06-14T15:23:47;95340.28;;;26.09;40.45
72395;BME280;60384;48.152;11.614;2023-06-14T15:26:50;95337.38;;;26.16;40.39
72395;BME280;60384;48.152;11.614;2023-06-14T15:29:52;95342.81;;;26.19;40.36
72395;BME280;60384;48.152;11.614;2023-06-14T15:32:53;95351.06;;;26.36;40.82
72395;BME280;60384;48.152;11.614;2023-06-14T15:35:56;95341.41;;;26.47;40.74
72395;BME280;60384;48.152;11.614;2023-06-14T15:38:58;95344.31;;;26.56;40.35
72395;BME280;60384;48.152;11.614;2023-06-14T15:42:00;95341.31;;;26.67;40.54
72395;BME280;60384;48.152;11.614;2023-06-14T15:45:02;95346.22;;;26.76;40.07
72395;BME280;60384;48.152;11.614;2023-06-14T15:48:04;95335.16;;;26.63;40.27
72395;BME280;60384;48.152;11.614;2023-06-14T15:51:07;95344.81;;;26.51;40.90
72395;BME280;60384;48.152;11.614;2023-06-14T15:54:09;95340.28;;;26.45;40.63
72395;BME280;60384;48.152;11.614;2023-06-14T15:57:10;95353.81;;;26.36;40.50